sensor_id;sensor_type;location;lat;lon;timestamp;temperature;humidity
10812;DHT22;5458;51.496;7.334;2023-04-03T00:00:41;4.00;99.90
10812;DHT22;5458;51.496;7.334;2023-04-03T00:03:07;3.90;99.90
10812;DHT22;5458;51.496;7.334;2023-04-03T00:05:33;3.90;99.90
10812;DHT22;5458;51.496;7.334;2023-04-03T00:07:59;3.90;99.90
10812;DHT22;5458;51.496;7.334;2023-04-03T00:10:25;3.90;99.90
10812;DHT22;5458;51.496;7.334;2023-04-03T00:12:51;3.90;99.90
10812;DHT22;5458;51.496;7.334;2023-04-03T00:15:16;3.80;99.90
10812;DHT22;5458;51.496;7.334;2023-04-03T00:17:42;3.80;99.90
10812;DHT22;5458;51.496;7.334;2023-04-03T00:20:08;3.80;99.90
10812;DHT22;5458;51.496;7.334;2023-04-03T00:22:34;3.80;99.90
10812;DHT22;5458;51.496;7.334;2023-04-03T00:25:00;3.80;99.90
10812;DHT22;5458;51.496;7.334;2023-04-03T00:27:25;3.70;99.90
10812;DHT22;5458;51.496;7.334;2023-04-03T00:29:51;3.70;99.90
10812;DHT22;5458;51.496;7.334;2023-04-03T00:32:17;3.70;99.90
10812;DHT22;5458;51.496;7.334;2023-04-03T00:34:42;3.60;99.90
10812;DHT22;5458;51.496;7.334;2023-04-03T00:37:08;3.60;99.90
10812;DHT22;5458;51.496;7.334;2023-04-03T00:39:34;3.60;99.90
10812;DHT22;5458;51.496;7.334;2023-04-03T00:41:59;3.50;99.90
10812;DHT22;5458;51.496;7.334;2023-04-03T00:46:53;3.50;99.90
10812;DHT22;5458;51.496;7.334;2023-04-03T00:49:19;3.50;99.90
10812;DHT22;5458;51.496;7.334;2023-04-03T00:51:45;3.50;99.90
10812;DHT22;5458;51.496;7.334;2023-04-03T00:54:11;3.40;99.90
10812;DHT22;5458;51.496;7.334;2023-04-03T00:56:37;3.40;99.90
10812;DHT22;5458;51.496;7.334;2023-04-03T00:59:25;3.30;99.90
10812;DHT22;5458;51.496;7.334;2023-04-03T01:01:53;3.30;99.90
10812;DHT22;5458;51.496;7.334;2023-04-03T01:04:29;3.30;99.90
10812;DHT22;5458;51.496;7.334;2023-04-03T01:07:01;3.30;99.90
10812;DHT22;5458;51.496;7.334;2023-04-03T01:09:28;3.30;99.90
10812;DHT22;5458;51.496;7.334;2023-04-03T01:12:15;3.20;99.90
10812;DHT22;5458;51.496;7.334;2023-04-03T01:14:43;3.20;99.90
10812;DHT22;5458;51.496;7.334;2023-04-03T01:17:35;3.30;99.90
10812;DHT22;5458;51.496;7.334;2023-04-03T01:25:33;3.20;99.90
10812;DHT22;5458;51.496;7.334;2023-04-03T01:27:59;3.10;99.90
10812;DHT22;5458;51.496;7.334;2023-04-03T01:30:30;3.00;99.90
10812;DHT22;5458;51.496;7.334;2023-04-03T01:32:56;3.00;99.90
10812;DHT22;5458;51.496;7.334;2023-04-03T01:35:22;3.00;99.90
10812;DHT22;5458;51.496;7.334;2023-04-03T01:37:48;3.00;99.90
10812;DHT22;5458;51.496;7.334;2023-04-03T01:40:13;3.00;99.90
10812;DHT22;5458;51.496;7.334;2023-04-03T01:42:39;3.00;99.90
10812;DHT22;5458;51.496;7.334;2023-04-03T01:45:05;3.00;99.90
10812;DHT22;5458;51.496;7.334;2023-04-03T01:47:30;3.00;99.90
10812;DHT22;5458;51.496;7.334;2023-04-03T01:49:56;3.00;99.90
10812;DHT22;5458;51.496;7.334;2023-04-03T01:52:22;3.00;99.90
10812;DHT22;5458;51.496;7.334;2023-04-03T01:54:47;3.00;99.90
10812;DHT22;5458;51.496;7.334;2023-04-03T01:57:13;3.00;99.90
10812;DHT22;5458;51.496;7.334;2023-04-03T01:59:40;3.10;99.90
10812;DHT22;5458;51.496;7.334;2023-04-03T02:02:06;3.00;99.90
10812;DHT22;5458;51.496;7.334;2023-04-03T02:04:32;3.10;99.90
10812;DHT22;5458;51.496;7.334;2023-04-03T02:06:58;3.10;99.90
10812;DHT22;5458;51.496;7.334;2023-04-03T02:09:23;3.10;99.90
10812;DHT22;5458;51.496;7.334;2023-04-03T02:11:49;3.10;99.90
10812;DHT22;5458;51.496;7.334;2023-04-03T02:14:15;3.00;99.90
10812;DHT22;5458;51.496;7.334;2023-04-03T02:16:40;3.10;99.90
10812;DHT22;5458;51.496;7.334;2023-04-03T02:19:06;3.00;99.90
10812;DHT22;5458;51.496;7.334;2023-04-03T02:21:32;3.00;99.90
10812;DHT22;5458;51.496;7.334;2023-04-03T02:23:57;3.00;99.90
10812;DHT22;5458;51.496;7.334;2023-04-03T02:26:23;3.00;99.90
10812;DHT22;5458;51.496;7.334;2023-04-03T02:28:49;3.00;99.90
10812;DHT22;5458;51.496;7.334;2023-04-03T02:31:15;3.00;99.90
10812;DHT22;5458;51.496;7.334;2023-04-03T02:33:40;3.00;99.90
10812;DHT22;5458;51.496;7.334;2023-04-03T02:36:07;3.00;99.90
10812;DHT22;5458;51.496;7.334;2023-04-03T02:38:32;3.10;99.90
10812;DHT22;5458;51.496;7.334;2023-04-03T02:41:03;3.10;99.90
10812;DHT22;5458;51.496;7.334;2023-04-03T02:43:29;3.20;99.90
10812;DHT22;5458;51.496;7.334;2023-04-03T02:45:55;3.10;99.90
10812;DHT22;5458;51.496;7.334;2023-04-03T02:48:20;3.00;99.90
10812;DHT22;5458;51.496;7.334;2023-04-03T02:50:46;3.00;99.90
10812;DHT22;5458;51.496;7.334;2023-04-03T02:53:11;2.90;99.90
10812;DHT22;5458;51.496;7.334;2023-04-03T02:55:37;2.80;99.90
10812;DHT22;5458;51.496;7.334;2023-04-03T02:58:03;2.80;99.90
10812;DHT22;5458;51.496;7.334;2023-04-03T03:00:29;2.80;99.90
10812;DHT22;5458;51.496;7.334;2023-04-03T03:02:55;2.80;99.90
10812;DHT22;5458;51.496;7.334;2023-04-03T03:05:21;2.80;99.90
10812;DHT22;5458;51.496;7.334;2023-04-03T03:07:47;2.80;99.90
10812;DHT22;5458;51.496;7.334;2023-04-03T03:10:12;2.90;99.90
10812;DHT22;5458;51.496;7.334;2023-04-03T03:12:38;2.90;99.90
10812;DHT22;5458;51.496;7.334;2023-04-03T03:15:04;2.90;99.90
10812;DHT22;5458;51.496;7.334;2023-04-03T03:17:30;2.90;99.90
10812;DHT22;5458;51.496;7.334;2023-04-03T03:19:55;2.90;99.90
10812;DHT22;5458;51.496;7.334;2023-04-03T03:22:21;3.00;99.90
10812;DHT22;5458;51.496;7.334;2023-04-03T03:24:46;2.90;99.90
10812;DHT22;5458;51.496;7.334;2023-04-03T03:27:12;3.00;99.90
10812;DHT22;5458;51.496;7.334;2023-04-03T03:29:37;2.90;99.90
10812;DHT22;5458;51.496;7.334;2023-04-03T03:32:03;3.00;99.90
10812;DHT22;5458;51.496;7.334;2023-04-03T03:34:29;3.00;99.90
10812;DHT22;5458;51.496;7.334;2023-04-03T03:36:55;3.00;99.90
10812;DHT22;5458;51.496;7.334;2023-04-03T03:39:21;3.00;99.90
10812;DHT22;5458;51.496;7.334;2023-04-03T03:41:46;3.00;99.90
10812;DHT22;5458;51.496;7.334;2023-04-03T03:44:12;3.00;99.90
10812;DHT22;5458;51.496;7.334;2023-04-03T03:46:38;3.00;99.90
10812;DHT22;5458;51.496;7.334;2023-04-03T03:49:03;3.10;99.90
10812;DHT22;5458;51.496;7.334;2023-04-03T03:51:29;3.00;99.90
10812;DHT22;5458;51.496;7.334;2023-04-03T03:53:55;3.00;99.90
10812;DHT22;5458;51.496;7.334;2023-04-03T03:56:21;3.00;99.90
10812;DHT22;5458;51.496;7.334;2023-04-03T03:58:46;3.10;99.90
10812;DHT22;5458;51.496;7.334;2023-04-03T04:01:12;3.10;99.90
10812;DHT22;5458;51.496;7.334;2023-04-03T04:03:37;3.00;99.90
10812;DHT22;5458;51.496;7.334;2023-04-03T04:06:03;3.00;99.90
10812;DHT22;5458;51.496;7.334;2023-04-03T04:08:28;3.00;99.90
10812;DHT22;5458;51.496;7.334;2023-04-03T04:10:54;3.00;99.90
10812;DHT22;5458;51.496;7.334;2023-04-03T04:13:20;3.00;99.90
10812;DHT22;5458;51.496;7.334;2023-04-03T04:15:46;3.00;99.90
10812;DHT22;5458;51.496;7.334;2023-04-03T04:18:11;2.90;99.90
10812;DHT22;5458;51.496;7.334;2023-04-03T04:20:37;2.90;99.90
10812;DHT22;5458;51.496;7.334;2023-04-03T04:23:02;2.90;99.90
10812;DHT22;5458;51.496;7.334;2023-04-03T04:25:28;2.90;99.90
10812;DHT22;5458;51.496;7.334;2023-04-03T04:27:54;2.80;99.90
10812;DHT22;5458;51.496;7.334;2023-04-03T04:30:19;2.90;99.90
10812;DHT22;5458;51.496;7.334;2023-04-03T04:32:45;2.90;99.90
10812;DHT22;5458;51.496;7.334;2023-04-03T04:35:11;2.90;99.90
10812;DHT22;5458;51.496;7.334;2023-04-03T04:37:36;2.90;99.90
10812;DHT22;5458;51.496;7.334;2023-04-03T04:40:02;2.90;99.90
10812;DHT22;5458;51.496;7.334;2023-04-03T04:42:28;2.90;99.90
10812;DHT22;5458;51.496;7.334;2023-04-03T04:44:54;2.90;99.90
10812;DHT22;5458;51.496;7.334;2023-04-03T04:47:19;2.80;99.90
10812;DHT22;5458;51.496;7.334;2023-04-03T04:49:45;2.80;99.90
10812;DHT22;5458;51.496;7.334;2023-04-03T04:52:12;2.90;99.90
10812;DHT22;5458;51.496;7.334;2023-04-03T04:54:38;2.90;99.90
10812;DHT22;5458;51.496;7.334;2023-04-03T04:57:03;2.90;99.90
10812;DHT22;5458;51.496;7.334;2023-04-03T04:59:29;2.90;99.90
10812;DHT22;5458;51.496;7.334;2023-04-03T05:01:55;2.90;99.90
10812;DHT22;5458;51.496;7.334;2023-04-03T05:04:20;2.90;99.90
10812;DHT22;5458;51.496;7.334;2023-04-03T05:06:46;2.90;99.90
10812;DHT22;5458;51.496;7.334;2023-04-03T05:09:11;2.90;99.90
10812;DHT22;5458;51.496;7.334;2023-04-03T05:11:37;2.90;99.90
10812;DHT22;5458;51.496;7.334;2023-04-03T05:14:03;2.80;99.90
10812;DHT22;5458;51.496;7.334;2023-04-03T05:16:32;2.90;99.90
10812;DHT22;5458;51.496;7.334;2023-04-03T05:18:57;2.80;99.90
10812;DHT22;5458;51.496;7.334;2023-04-03T05:21:23;2.90;99.90
10812;DHT22;5458;51.496;7.334;2023-04-03T05:23:51;2.90;99.90
10812;DHT22;5458;51.496;7.334;2023-04-03T05:26:17;2.90;99.90
10812;DHT22;5458;51.496;7.334;2023-04-03T05:28:42;2.90;99.90
10812;DHT22;5458;51.496;7.334;2023-04-03T05:31:08;2.90;99.90
10812;DHT22;5458;51.496;7.334;2023-04-03T05:33:34;2.90;99.90
10812;DHT22;5458;51.496;7.334;2023-04-03T05:36:06;3.00;99.90
10812;DHT22;5458;51.496;7.334;2023-04-03T05:38:32;3.20;99.90
10812;DHT22;5458;51.496;7.334;2023-04-03T05:40:58;3.50;99.90
10812;DHT22;5458;51.496;7.334;2023-04-03T05:43:23;3.60;99.90
10812;DHT22;5458;51.496;7.334;2023-04-03T05:45:50;3.60;99.90
10812;DHT22;5458;51.496;7.334;2023-04-03T05:48:16;3.60;99.90
10812;DHT22;5458;51.496;7.334;2023-04-03T05:50:42;3.80;99.90
10812;DHT22;5458;51.496;7.334;2023-04-03T05:53:15;4.20;99.90
10812;DHT22;5458;51.496;7.334;2023-04-03T05:55:43;4.60;99.90
10812;DHT22;5458;51.496;7.334;2023-04-03T05:58:08;4.70;99.90
10812;DHT22;5458;51.496;7.334;2023-04-03T06:00:34;4.80;99.90
10812;DHT22;5458;51.496;7.334;2023-04-03T06:03:00;5.30;99.90
10812;DHT22;5458;51.496;7.334;2023-04-03T06:05:25;6.90;99.90
10812;DHT22;5458;51.496;7.334;2023-04-03T06:07:51;9.20;98.90
10812;DHT22;5458;51.496;7.334;2023-04-03T06:10:16;11.30;94.40
10812;DHT22;5458;51.496;7.334;2023-04-03T06:12:43;13.10;90.60
10812;DHT22;5458;51.496;7.334;2023-04-03T06:15:08;14.60;81.60
10812;DHT22;5458;51.496;7.334;2023-04-03T06:17:36;15.60;74.80
10812;DHT22;5458;51.496;7.334;2023-04-03T06:20:03;16.40;69.40
10812;DHT22;5458;51.496;7.334;2023-04-03T06:22:29;17.00;67.10
10812;DHT22;5458;51.496;7.334;2023-04-03T06:24:55;17.90;64.80
10812;DHT22;5458;51.496;7.334;2023-04-03T06:27:21;18.70;59.00
10812;DHT22;5458;51.496;7.334;2023-04-03T06:29:47;19.30;55.70
10812;DHT22;5458;51.496;7.334;2023-04-03T06:32:14;19.30;52.70
10812;DHT22;5458;51.496;7.334;2023-04-03T06:34:39;19.20;52.60
10812;DHT22;5458;51.496;7.334;2023-04-03T06:37:05;19.70;52.10
10812;DHT22;5458;51.496;7.334;2023-04-03T06:39:31;20.10;50.20
10812;DHT22;5458;51.496;7.334;2023-04-03T06:41:57;20.10;49.30
10812;DHT22;5458;51.496;7.334;2023-04-03T06:44:23;20.60;49.50
10812;DHT22;5458;51.496;7.334;2023-04-03T06:46:49;20.70;46.20
10812;DHT22;5458;51.496;7.334;2023-04-03T06:49:14;20.70;46.20
10812;DHT22;5458;51.496;7.334;2023-04-03T06:52:02;20.60;45.50
10812;DHT22;5458;51.496;7.334;2023-04-03T06:54:28;21.30;44.80
10812;DHT22;5458;51.496;7.334;2023-04-03T06:56:53;21.90;43.50
10812;DHT22;5458;51.496;7.334;2023-04-03T06:59:19;22.60;43.40
10812;DHT22;5458;51.496;7.334;2023-04-03T07:01:45;23.00;42.10
10812;DHT22;5458;51.496;7.334;2023-04-03T07:04:11;22.80;40.60
10812;DHT22;5458;51.496;7.334;2023-04-03T07:06:37;23.20;40.60
10812;DHT22;5458;51.496;7.334;2023-04-03T07:11:38;23.90;38.70
10812;DHT22;5458;51.496;7.334;2023-04-03T07:14:03;23.70;38.90
10812;DHT22;5458;51.496;7.334;2023-04-03T07:16:29;24.30;39.00
10812;DHT22;5458;51.496;7.334;2023-04-03T07:18:57;24.20;37.50
10812;DHT22;5458;51.496;7.334;2023-04-03T07:21:23;23.10;37.30
10812;DHT22;5458;51.496;7.334;2023-04-03T07:23:49;22.80;38.30
10812;DHT22;5458;51.496;7.334;2023-04-03T07:26:15;22.90;37.10
10812;DHT22;5458;51.496;7.334;2023-04-03T07:28:40;22.90;37.60
10812;DHT22;5458;51.496;7.334;2023-04-03T07:31:10;23.40;37.30
10812;DHT22;5458;51.496;7.334;2023-04-03T07:33:37;23.70;37.40
10812;DHT22;5458;51.496;7.334;2023-04-03T07:36:04;24.50;36.30
10812;DHT22;5458;51.496;7.334;2023-04-03T07:38:33;25.20;35.20
10812;DHT22;5458;51.496;7.334;2023-04-03T07:40:58;25.90;35.60
10812;DHT22;5458;51.496;7.334;2023-04-03T07:43:24;26.80;34.10
10812;DHT22;5458;51.496;7.334;2023-04-03T07:45:50;27.00;32.50
10812;DHT22;5458;51.496;7.334;2023-04-03T07:48:18;26.70;32.20
10812;DHT22;5458;51.496;7.334;2023-04-03T07:50:44;26.70;32.20
10812;DHT22;5458;51.496;7.334;2023-04-03T07:53:10;26.10;32.50
10812;DHT22;5458;51.496;7.334;2023-04-03T07:55:36;26.40;33.00
10812;DHT22;5458;51.496;7.334;2023-04-03T07:58:08;26.20;32.40
10812;DHT22;5458;51.496;7.334;2023-04-03T08:00:34;26.40;32.60
10812;DHT22;5458;51.496;7.334;2023-04-03T08:03:00;26.80;32.30
10812;DHT22;5458;51.496;7.334;2023-04-03T08:05:26;26.50;31.20
10812;DHT22;5458;51.496;7.334;2023-04-03T08:07:52;26.90;31.90
10812;DHT22;5458;51.496;7.334;2023-04-03T08:10:18;27.50;31.40
10812;DHT22;5458;51.496;7.334;2023-04-03T08:12:48;28.00;30.00
10812;DHT22;5458;51.496;7.334;2023-04-03T08:15:14;27.80;30.00
10812;DHT22;5458;51.496;7.334;2023-04-03T08:17:40;28.10;30.20
10812;DHT22;5458;51.496;7.334;2023-04-03T08:20:06;28.40;29.80
10812;DHT22;5458;51.496;7.334;2023-04-03T08:22:32;28.50;29.00
10812;DHT22;5458;51.496;7.334;2023-04-03T08:24:58;29.00;28.90
10812;DHT22;5458;51.496;7.334;2023-04-03T08:27:24;28.60;28.60
10812;DHT22;5458;51.496;7.334;2023-04-03T08:29:50;27.50;28.70
10812;DHT22;5458;51.496;7.334;2023-04-03T08:32:16;27.00;29.10
10812;DHT22;5458;51.496;7.334;2023-04-03T08:34:42;26.70;29.90
10812;DHT22;5458;51.496;7.334;2023-04-03T08:37:07;26.50;29.80
10812;DHT22;5458;51.496;7.334;2023-04-03T08:39:33;27.10;30.20
10812;DHT22;5458;51.496;7.334;2023-04-03T08:42:02;27.10;29.40
10812;DHT22;5458;51.496;7.334;2023-04-03T08:44:59;26.80;29.10
10812;DHT22;5458;51.496;7.334;2023-04-03T08:50:02;26.60;29.70
10812;DHT22;5458;51.496;7.334;2023-04-03T08:52:45;26.50;29.80
10812;DHT22;5458;51.496;7.334;2023-04-03T08:55:28;25.70;29.70
10812;DHT22;5458;51.496;7.334;2023-04-03T08:58:02;24.10;30.00
10812;DHT22;5458;51.496;7.334;2023-04-03T09:00:49;22.90;31.20
10812;DHT22;5458;51.496;7.334;2023-04-03T09:03:18;21.60;32.00
10812;DHT22;5458;51.496;7.334;2023-04-03T09:14:07;16.00;36.50
10812;DHT22;5458;51.496;7.334;2023-04-03T09:16:56;15.30;37.60
10812;DHT22;5458;51.496;7.334;2023-04-03T09:22:13;14.20;39.70
10812;DHT22;5458;51.496;7.334;2023-04-03T09:24:43;13.20;39.40
10812;DHT22;5458;51.496;7.334;2023-04-03T09:27:11;13.00;42.10
10812;DHT22;5458;51.496;7.334;2023-04-03T09:29:41;13.00;41.70
10812;DHT22;5458;51.496;7.334;2023-04-03T09:34:53;12.30;42.50
10812;DHT22;5458;51.496;7.334;2023-04-03T09:37:44;12.30;43.20
10812;DHT22;5458;51.496;7.334;2023-04-03T09:40:35;12.30;43.00
10812;DHT22;5458;51.496;7.334;2023-04-03T09:45:45;12.00;43.10
10812;DHT22;5458;51.496;7.334;2023-04-03T09:56:18;11.80;41.90
10812;DHT22;5458;51.496;7.334;2023-04-03T10:01:30;11.80;45.40
10812;DHT22;5458;51.496;7.334;2023-04-03T10:04:17;11.80;44.20
10812;DHT22;5458;51.496;7.334;2023-04-03T10:06:52;11.90;44.80
10812;DHT22;5458;51.496;7.334;2023-04-03T10:09:22;11.80;43.60
10812;DHT22;5458;51.496;7.334;2023-04-03T10:12:08;11.80;44.40
10812;DHT22;5458;51.496;7.334;2023-04-03T10:14:56;11.70;43.90
10812;DHT22;5458;51.496;7.334;2023-04-03T10:17:26;11.60;45.10
10812;DHT22;5458;51.496;7.334;2023-04-03T10:20:06;11.20;44.30
10812;DHT22;5458;51.496;7.334;2023-04-03T10:25:35;11.20;45.20
10812;DHT22;5458;51.496;7.334;2023-04-03T10:31:14;10.70;44.50
10812;DHT22;5458;51.496;7.334;2023-04-03T10:33:58;10.90;46.30
10812;DHT22;5458;51.496;7.334;2023-04-03T10:36:39;11.10;45.10
10812;DHT22;5458;51.496;7.334;2023-04-03T10:39:25;11.10;46.10
10812;DHT22;5458;51.496;7.334;2023-04-03T10:47:36;11.30;47.00
10812;DHT22;5458;51.496;7.334;2023-04-03T10:52:57;11.60;44.80
10812;DHT22;5458;51.496;7.334;2023-04-03T10:55:55;11.60;45.50
10812;DHT22;5458;51.496;7.334;2023-04-03T10:58:43;11.40;44.60
10812;DHT22;5458;51.496;7.334;2023-04-03T11:01:13;11.40;44.00
10812;DHT22;5458;51.496;7.334;2023-04-03T11:03:49;11.60;44.00
10812;DHT22;5458;51.496;7.334;2023-04-03T11:06:18;11.50;44.20
10812;DHT22;5458;51.496;7.334;2023-04-03T11:08:46;11.20;43.90
10812;DHT22;5458;51.496;7.334;2023-04-03T11:11:19;11.10;43.60
10812;DHT22;5458;51.496;7.334;2023-04-03T11:13:58;10.80;44.00
10812;DHT22;5458;51.496;7.334;2023-04-03T11:16:28;10.80;44.60
10812;DHT22;5458;51.496;7.334;2023-04-03T11:22:14;10.50;43.90
10812;DHT22;5458;51.496;7.334;2023-04-03T11:24:43;10.40;43.70
10812;DHT22;5458;51.496;7.334;2023-04-03T11:27:18;10.60;44.40
10812;DHT22;5458;51.496;7.334;2023-04-03T11:29:48;10.60;43.60
10812;DHT22;5458;51.496;7.334;2023-04-03T11:32:27;10.50;44.40
10812;DHT22;5458;51.496;7.334;2023-04-03T11:34:56;10.40;44.30
10812;DHT22;5458;51.496;7.334;2023-04-03T11:37:38;10.40;44.50
10812;DHT22;5458;51.496;7.334;2023-04-03T11:40:21;10.40;45.30
10812;DHT22;5458;51.496;7.334;2023-04-03T11:42:49;10.50;45.40
10812;DHT22;5458;51.496;7.334;2023-04-03T11:50:47;10.50;44.30
10812;DHT22;5458;51.496;7.334;2023-04-03T12:00:49;10.50;45.70
10812;DHT22;5458;51.496;7.334;2023-04-03T12:08:44;10.70;43.30
10812;DHT22;5458;51.496;7.334;2023-04-03T12:26:51;10.40;43.60
10812;DHT22;5458;51.496;7.334;2023-04-03T12:40:15;10.10;44.00
10812;DHT22;5458;51.496;7.334;2023-04-03T12:45:44;10.20;44.30
10812;DHT22;5458;51.496;7.334;2023-04-03T12:48:15;10.30;45.50
10812;DHT22;5458;51.496;7.334;2023-04-03T12:50:43;10.40;44.20
10812;DHT22;5458;51.496;7.334;2023-04-03T12:53:25;10.50;44.40
10812;DHT22;5458;51.496;7.334;2023-04-03T12:55:55;10.40;44.50
10812;DHT22;5458;51.496;7.334;2023-04-03T12:58:26;10.40;44.60
10812;DHT22;5458;51.496;7.334;2023-04-03T13:03:34;10.40;45.50
10812;DHT22;5458;51.496;7.334;2023-04-03T13:06:02;10.40;44.40
10812;DHT22;5458;51.496;7.334;2023-04-03T13:08:29;10.30;45.00
10812;DHT22;5458;51.496;7.334;2023-04-03T13:11:03;10.30;45.60
10812;DHT22;5458;51.496;7.334;2023-04-03T13:13:31;10.20;45.70
10812;DHT22;5458;51.496;7.334;2023-04-03T13:15:58;10.30;46.30
10812;DHT22;5458;51.496;7.334;2023-04-03T13:18:34;10.40;45.90
10812;DHT22;5458;51.496;7.334;2023-04-03T13:21:17;10.40;45.30
10812;DHT22;5458;51.496;7.334;2023-04-03T13:23:47;10.40;44.90
10812;DHT22;5458;51.496;7.334;2023-04-03T13:26:17;10.40;45.50
10812;DHT22;5458;51.496;7.334;2023-04-03T13:28:45;10.40;45.20
10812;DHT22;5458;51.496;7.334;2023-04-03T13:34:02;10.30;45.80
10812;DHT22;5458;51.496;7.334;2023-04-03T13:36:58;10.40;46.00
10812;DHT22;5458;51.496;7.334;2023-04-03T13:39:27;10.40;46.40
10812;DHT22;5458;51.496;7.334;2023-04-03T13:41:59;10.40;45.70
10812;DHT22;5458;51.496;7.334;2023-04-03T13:44:36;10.30;46.20
10812;DHT22;5458;51.496;7.334;2023-04-03T13:49:39;10.40;45.10
10812;DHT22;5458;51.496;7.334;2023-04-03T13:54:54;10.30;45.60
10812;DHT22;5458;51.496;7.334;2023-04-03T13:57:20;10.20;46.50
10812;DHT22;5458;51.496;7.334;2023-04-03T13:59:46;10.10;47.20
10812;DHT22;5458;51.496;7.334;2023-04-03T14:02:16;10.10;46.50
10812;DHT22;5458;51.496;7.334;2023-04-03T14:04:50;10.20;46.70
10812;DHT22;5458;51.496;7.334;2023-04-03T14:07:17;10.10;47.80
10812;DHT22;5458;51.496;7.334;2023-04-03T14:09:43;10.10;46.90
10812;DHT22;5458;51.496;7.334;2023-04-03T14:12:15;10.10;47.20
10812;DHT22;5458;51.496;7.334;2023-04-03T14:14:42;10.20;47.70
10812;DHT22;5458;51.496;7.334;2023-04-03T14:17:20;10.20;45.90
10812;DHT22;5458;51.496;7.334;2023-04-03T14:19:48;10.20;46.70
10812;DHT22;5458;51.496;7.334;2023-04-03T14:22:19;10.20;46.20
10812;DHT22;5458;51.496;7.334;2023-04-03T14:24:47;10.30;47.00
10812;DHT22;5458;51.496;7.334;2023-04-03T14:27:26;10.30;46.90
10812;DHT22;5458;51.496;7.334;2023-04-03T14:29:53;10.40;46.70
10812;DHT22;5458;51.496;7.334;2023-04-03T14:32:21;10.10;45.30
10812;DHT22;5458;51.496;7.334;2023-04-03T14:34:49;10.00;45.80
10812;DHT22;5458;51.496;7.334;2023-04-03T14:37:24;9.90;47.20
10812;DHT22;5458;51.496;7.334;2023-04-03T14:39:51;9.90;47.90
10812;DHT22;5458;51.496;7.334;2023-04-03T14:42:21;9.90;48.50
10812;DHT22;5458;51.496;7.334;2023-04-03T14:44:48;9.80;49.10
10812;DHT22;5458;51.496;7.334;2023-04-03T14:47:16;9.90;49.40
10812;DHT22;5458;51.496;7.334;2023-04-03T14:49:43;9.90;48.40
10812;DHT22;5458;51.496;7.334;2023-04-03T14:52:25;10.00;47.10
10812;DHT22;5458;51.496;7.334;2023-04-03T14:54:52;10.10;47.60
10812;DHT22;5458;51.496;7.334;2023-04-03T14:57:18;10.10;47.60
10812;DHT22;5458;51.496;7.334;2023-04-03T14:59:45;10.10;47.40
10812;DHT22;5458;51.496;7.334;2023-04-03T15:02:37;10.10;47.40
10812;DHT22;5458;51.496;7.334;2023-04-03T15:05:06;10.00;47.40
10812;DHT22;5458;51.496;7.334;2023-04-03T15:07:47;9.90;49.30
10812;DHT22;5458;51.496;7.334;2023-04-03T15:10:27;9.80;48.30
10812;DHT22;5458;51.496;7.334;2023-04-03T15:12:53;9.80;48.90
10812;DHT22;5458;51.496;7.334;2023-04-03T15:15:21;9.80;49.00
10812;DHT22;5458;51.496;7.334;2023-04-03T15:17:51;9.90;48.70
10812;DHT22;5458;51.496;7.334;2023-04-03T15:20:21;9.90;47.50
10812;DHT22;5458;51.496;7.334;2023-04-03T15:22:46;9.90;48.10
10812;DHT22;5458;51.496;7.334;2023-04-03T15:25:12;9.80;47.70
10812;DHT22;5458;51.496;7.334;2023-04-03T15:27:38;9.70;47.70
10812;DHT22;5458;51.496;7.334;2023-04-03T15:30:06;9.80;48.90
10812;DHT22;5458;51.496;7.334;2023-04-03T15:32:33;9.90;49.60
10812;DHT22;5458;51.496;7.334;2023-04-03T15:34:59;10.00;48.10
10812;DHT22;5458;51.496;7.334;2023-04-03T15:37:25;10.10;49.00
10812;DHT22;5458;51.496;7.334;2023-04-03T15:39:51;10.10;48.90
10812;DHT22;5458;51.496;7.334;2023-04-03T15:42:16;10.10;48.50
10812;DHT22;5458;51.496;7.334;2023-04-03T15:44:42;10.10;48.30
10812;DHT22;5458;51.496;7.334;2023-04-03T15:47:08;10.00;48.70
10812;DHT22;5458;51.496;7.334;2023-04-03T15:49:34;10.00;48.80
10812;DHT22;5458;51.496;7.334;2023-04-03T15:51:59;10.00;48.90
10812;DHT22;5458;51.496;7.334;2023-04-03T15:54:25;9.90;48.60
10812;DHT22;5458;51.496;7.334;2023-04-03T15:56:52;9.70;48.40
10812;DHT22;5458;51.496;7.334;2023-04-03T15:59:17;9.60;48.80
10812;DHT22;5458;51.496;7.334;2023-04-03T16:01:43;9.50;49.30
10812;DHT22;5458;51.496;7.334;2023-04-03T16:04:09;9.60;49.30
10812;DHT22;5458;51.496;7.334;2023-04-03T16:06:36;9.60;48.70
10812;DHT22;5458;51.496;7.334;2023-04-03T16:09:03;9.40;49.00
10812;DHT22;5458;51.496;7.334;2023-04-03T16:11:29;9.40;49.70
10812;DHT22;5458;51.496;7.334;2023-04-03T16:13:55;9.40;49.20
10812;DHT22;5458;51.496;7.334;2023-04-03T16:16:21;9.50;49.30
10812;DHT22;5458;51.496;7.334;2023-04-03T16:18:47;9.50;48.90
10812;DHT22;5458;51.496;7.334;2023-04-03T16:21:14;9.50;49.10
10812;DHT22;5458;51.496;7.334;2023-04-03T16:23:41;9.50;48.90
10812;DHT22;5458;51.496;7.334;2023-04-03T16:26:08;9.40;49.20
10812;DHT22;5458;51.496;7.334;2023-04-03T16:28:33;9.40;50.00
10812;DHT22;5458;51.496;7.334;2023-04-03T16:31:00;9.20;49.30
10812;DHT22;5458;51.496;7.334;2023-04-03T16:33:26;9.20;49.70
10812;DHT22;5458;51.496;7.334;2023-04-03T16:35:52;9.30;49.20
10812;DHT22;5458;51.496;7.334;2023-04-03T16:38:18;9.20;49.40
10812;DHT22;5458;51.496;7.334;2023-04-03T16:40:45;9.20;50.50
10812;DHT22;5458;51.496;7.334;2023-04-03T16:43:10;9.00;50.10
10812;DHT22;5458;51.496;7.334;2023-04-03T16:45:36;9.00;50.60
10812;DHT22;5458;51.496;7.334;2023-04-03T16:48:02;9.00;51.00
10812;DHT22;5458;51.496;7.334;2023-04-03T16:50:28;8.90;51.10
10812;DHT22;5458;51.496;7.334;2023-04-03T16:52:53;9.00;51.00
10812;DHT22;5458;51.496;7.334;2023-04-03T16:55:19;9.10;49.90
10812;DHT22;5458;51.496;7.334;2023-04-03T16:57:46;9.10;49.00
10812;DHT22;5458;51.496;7.334;2023-04-03T17:00:12;9.00;48.90
10812;DHT22;5458;51.496;7.334;2023-04-03T17:02:39;8.90;49.30
10812;DHT22;5458;51.496;7.334;2023-04-03T17:05:05;8.80;49.20
10812;DHT22;5458;51.496;7.334;2023-04-03T17:07:31;8.90;49.70
10812;DHT22;5458;51.496;7.334;2023-04-03T17:09:56;8.80;49.90
10812;DHT22;5458;51.496;7.334;2023-04-03T17:12:22;8.80;50.60
10812;DHT22;5458;51.496;7.334;2023-04-03T17:14:48;8.70;50.80
10812;DHT22;5458;51.496;7.334;2023-04-03T17:17:14;8.60;51.30
10812;DHT22;5458;51.496;7.334;2023-04-03T17:19:41;8.60;51.00
10812;DHT22;5458;51.496;7.334;2023-04-03T17:22:08;8.60;51.30
10812;DHT22;5458;51.496;7.334;2023-04-03T17:24:35;8.50;50.80
10812;DHT22;5458;51.496;7.334;2023-04-03T17:27:01;8.50;51.70
10812;DHT22;5458;51.496;7.334;2023-04-03T17:29:27;8.50;50.90
10812;DHT22;5458;51.496;7.334;2023-04-03T17:31:52;8.30;50.80
10812;DHT22;5458;51.496;7.334;2023-04-03T17:34:18;8.30;50.80
10812;DHT22;5458;51.496;7.334;2023-04-03T17:36:43;8.30;51.30
10812;DHT22;5458;51.496;7.334;2023-04-03T17:39:09;8.40;51.20
10812;DHT22;5458;51.496;7.334;2023-04-03T17:41:35;8.30;51.10
10812;DHT22;5458;51.496;7.334;2023-04-03T17:44:01;8.30;51.50
10812;DHT22;5458;51.496;7.334;2023-04-03T17:46:27;8.20;51.80
10812;DHT22;5458;51.496;7.334;2023-04-03T17:48:54;8.20;52.30
10812;DHT22;5458;51.496;7.334;2023-04-03T17:51:22;8.30;52.20
10812;DHT22;5458;51.496;7.334;2023-04-03T17:53:48;8.20;51.60
10812;DHT22;5458;51.496;7.334;2023-04-03T17:56:20;8.10;51.40
10812;DHT22;5458;51.496;7.334;2023-04-03T17:58:47;8.10;52.00